Time;durP1;ratioP1;P1;durP2;ratioP2;P2;SDS_P1;SDS_P2;PMS_P1;PMS_P2;Temp;Humidity;BMP_temperature;BMP_pressure;BME280_temperature;BME280_humidity;BME280_pressure;Samples;Min_cycle;Max_cycle;Signal;HPM_P1;HPM_P2
2023/08/21 00:01:55;;;;;;;;;;;;;;;23.66;70.16;97287.36;588025;238;64834;-70
2023/08/21 00:04:22;;;;;;;;;;;;;;;23.68;70.49;97295.12;587026;241;62698;-70
2023/08/21 00:06:50;;;;;;;;;;;;;;;23.66;69.14;97289.25;594160;237;67084;-71
2023/08/21 00:09:17;;;;;;;;;;;;;;;23.66;69.75;97292.73;596238;237;66925;-71
2023/08/21 00:11:45;;;;;;;;;;;;;;;23.65;69.65;97293.83;594629;237;64670;-71
2023/08/21 00:14:12;;;;;;;;;;;;;;;23.66;70.42;97290.05;594509;238;67236;-70
2023/08/21 00:16:40;;;;;;;;;;;;;;;23.66;70.39;97290.05;595674;237;67083;-71
2023/08/21 00:19:07;;;;;;;;;;;;;;;23.66;70.33;97290.05;595805;237;65594;-71
2023/08/21 00:21:35;;;;;;;;;;;;;;;23.65;69.68;97288.46;584539;242;68090;-70
2023/08/21 00:24:02;;;;;;;;;;;;;;;23.65;69.81;97285.77;595502;236;64949;-70
2023/08/21 00:26:29;;;;;;;;;;;;;;;23.65;70.00;97285.77;596008;237;62570;-70
2023/08/21 00:28:57;;;;;;;;;;;;;;;23.65;69.42;97291.14;596776;237;64839;-71
2023/08/21 00:31:26;;;;;;;;;;;;;;;23.65;70.30;97291.14;594992;237;67352;-70
2023/08/21 00:33:53;;;;;;;;;;;;;;;23.66;70.46;97292.73;596811;237;64664;-70
2023/08/21 00:36:21;;;;;;;;;;;;;;;23.64;70.01;97286.05;595478;237;67085;-70
2023/08/21 00:38:49;;;;;;;;;;;;;;;23.64;70.19;97289.52;594526;238;67186;-70
2023/08/21 00:41:17;;;;;;;;;;;;;;;23.64;69.75;97292.20;594478;238;62428;-71
2023/08/21 00:43:44;;;;;;;;;;;;;;;23.63;69.65;97285.25;594453;238;64837;-71
2023/08/21 00:46:12;;;;;;;;;;;;;;;23.64;69.70;97289.52;593993;238;65175;-71
2023/08/21 00:48:40;;;;;;;;;;;;;;;23.63;69.99;97282.56;585207;242;64626;-70
2023/08/21 00:51:07;;;;;;;;;;;;;;;23.64;70.37;97284.16;591939;237;67074;-74
2023/08/21 00:53:35;;;;;;;;;;;;;;;23.64;69.51;97286.84;589913;240;64826;-74
2023/08/21 00:56:03;;;;;;;;;;;;;;;23.62;69.79;97280.95;593726;236;62444;-74
2023/08/21 00:58:30;;;;;;;;;;;;;;;23.63;70.73;97277.20;587000;240;67164;-74
2023/08/21 01:00:59;;;;;;;;;;;;;;;23.63;70.41;97282.56;592247;237;64409;-74
2023/08/21 01:03:26;;;;;;;;;;;;;;;23.64;70.17;97283.36;584700;242;64740;-74
2023/08/21 01:05:55;;;;;;;;;;;;;;;23.62;69.64;97280.16;594081;238;66985;-74
2023/08/21 01:08:27;;;;;;;;;;;;;;;23.62;70.08;97272.11;594452;238;64919;-74
2023/08/21 01:10:59;;;;;;;;;;;;;;;23.62;70.15;97274.78;594315;238;64293;-73
2023/08/21 01:13:28;;;;;;;;;;;;;;;23.63;69.40;97276.41;594276;238;67312;-70
2023/08/21 01:15:56;;;;;;;;;;;;;;;23.62;69.82;97275.58;593439;238;67145;-69
2023/08/21 01:18:26;;;;;;;;;;;;;;;23.62;69.75;97280.95;596407;237;64656;-69
2023/08/21 01:20:55;;;;;;;;;;;;;;;23.62;70.41;97274.78;595095;237;67256;-70
2023/08/21 01:23:29;;;;;;;;;;;;;;;23.61;70.11;97278.56;595733;237;66957;-69
2023/08/21 01:25:57;;;;;;;;;;;;;;;23.61;69.92;97273.99;590807;238;63376;-70
2023/08/21 01:28:25;;;;;;;;;;;;;;;23.60;70.06;97275.08;594311;238;68095;-70
2023/08/21 01:30:54;;;;;;;;;;;;;;;23.61;69.70;97273.99;586650;241;64739;-70
2023/08/21 01:33:23;;;;;;;;;;;;;;;23.61;69.72;97276.67;593797;238;64782;-70
2023/08/21 01:35:51;;;;;;;;;;;;;;;23.61;69.30;97273.20;594459;238;66979;-70
2023/08/21 01:38:20;;;;;;;;;;;;;;;23.62;70.30;97272.11;594475;238;67125;-70
2023/08/21 01:40:47;;;;;;;;;;;;;;;23.60;70.58;97277.77;594522;238;62335;-70
2023/08/21 01:43:15;;;;;;;;;;;;;;;23.60;69.28;97277.77;589391;237;66903;-70
2023/08/21 01:45:43;;;;;;;;;;;;;;;23.59;69.14;97278.83;592531;237;64818;-70
2023/08/21 01:48:11;;;;;;;;;;;;;;;23.59;70.17;97281.52;593673;238;65390;-70
2023/08/21 01:50:38;;;;;;;;;;;;;;;23.60;70.84;97283.13;585304;241;67094;-70
2023/08/21 01:53:06;;;;;;;;;;;;;;;23.59;68.95;97280.72;593202;238;66915;-70
2023/08/21 01:55:34;;;;;;;;;;;;;;;23.59;69.34;97286.88;593611;237;62422;-70
2023/08/21 01:58:01;;;;;;;;;;;;;;;23.60;69.92;97282.31;594602;237;64909;-70
2023/08/21 02:00:29;;;;;;;;;;;;;;;23.58;69.19;97279.92;594876;237;67283;-70
2023/08/21 02:02:56;;;;;;;;;;;;;;;23.58;68.50;97269.19;587710;239;64736;-70
2023/08/21 02:05:24;;;;;;;;;;;;;;;23.59;68.01;97278.03;588947;240;64890;-70
2023/08/21 02:07:51;;;;;;;;;;;;;;;23.57;68.08;97278.33;595711;237;64956;-70
2023/08/21 02:10:19;;;;;;;;;;;;;;;23.60;70.40;97293.04;593596;237;64636;-70
2023/08/21 02:12:46;;;;;;;;;;;;;;;23.59;69.87;97281.52;587305;241;67215;-70
2023/08/21 02:15:14;;;;;;;;;;;;;;;23.59;70.23;97280.72;593464;238;66873;-70
2023/08/21 02:17:42;;;;;;;;;;;;;;;23.60;70.35;97279.63;593249;238;64573;-70
2023/08/21 02:20:10;;;;;;;;;;;;;;;23.59;70.50;97284.20;593102;238;64628;-70
2023/08/21 02:22:38;;;;;;;;;;;;;;;23.58;69.64;97285.29;593983;237;65030;-74
2023/08/21 02:25:06;;;;;;;;;;;;;;;23.57;68.46;97286.38;594478;238;62616;-73
2023/08/21 02:27:33;;;;;;;;;;;;;;;23.56;67.73;97282.08;594580;238;67349;-73
2023/08/21 02:30:01;;;;;;;;;;;;;;;23.56;68.06;97282.08;595226;237;64868;-74
2023/08/21 02:32:30;;;;;;;;;;;;;;;23.56;68.34;97275.92;595202;237;48514;-74
2023/08/21 02:34:57;;;;;;;;;;;;;;;23.55;68.23;97275.13;594659;237;66048;-74
2023/08/21 02:37:25;;;;;;;;;;;;;;;23.54;68.04;97284.23;593847;237;67072;-74
2023/08/21 02:39:53;;;;;;;;;;;;;;;23.54;67.96;97273.50;596451;236;65724;-73
2023/08/21 02:42:20;;;;;;;;;;;;;;;23.56;68.12;97274.03;594567;237;64546;-74
2023/08/21 02:44:48;;;;;;;;;;;;;;;23.55;68.20;97275.13;594526;237;64657;-73
2023/08/21 02:47:15;;;;;;;;;;;;;;;23.54;68.25;97273.50;594561;238;64756;-70
2023/08/21 02:49:43;;;;;;;;;;;;;;;23.55;68.20;97285.06;596415;237;66751;-70
2023/08/21 02:52:12;;;;;;;;;;;;;;;23.54;68.21;97278.87;594578;238;43785;-70
2023/08/21 02:54:39;;;;;;;;;;;;;;;23.54;68.26;97284.23;595677;237;64635;-70
2023/08/21 02:57:09;;;;;;;;;;;;;;;23.54;68.27;97280.75;591275;237;67192;-74
2023/08/21 02:59:36;;;;;;;;;;;;;;;23.54;68.21;97286.92;589350;240;66720;-74
2023/08/21 03:02:04;;;;;;;;;;;;;;;23.54;68.32;97288.80;594984;238;64659;-74
2023/08/21 03:04:31;;;;;;;;;;;;;;;23.53;68.37;97288.01;592817;238;64594;-73
2023/08/21 03:06:59;;;;;;;;;;;;;;;23.53;68.23;97293.38;587523;240;66631;-74
2023/08/21 03:09:26;;;;;;;;;;;;;;;23.54;68.20;97288.80;593322;238;64490;-74
2023/08/21 03:11:54;;;;;;;;;;;;;;;23.53;68.37;97287.22;592466;238;64865;-73
2023/08/21 03:14:22;;;;;;;;;;;;;;;23.52;68.53;97289.10;596033;237;67216;-74
2023/08/21 03:16:49;;;;;;;;;;;;;;;23.53;68.48;97290.69;594843;237;62515;-73
2023/08/21 03:19:17;;;;;;;;;;;;;;;23.52;68.56;97286.42;594509;238;64849;-73
2023/08/21 03:21:44;;;;;;;;;;;;;;;23.53;68.39;97292.58;595384;237;67071;-72
2023/08/21 03:24:12;;;;;;;;;;;;;;;23.53;68.40;97295.27;584593;242;64816;-74
2023/08/21 03:26:39;;;;;;;;;;;;;;;23.52;68.40;97291.78;594367;237;67000;-73
2023/08/21 03:29:07;;;;;;;;;;;;;;;23.53;68.47;97297.94;594404;237;64881;-73
2023/08/21 03:31:34;;;;;;;;;;;;;;;23.52;68.46;97296.32;586779;240;64742;-74
2023/08/21 03:34:02;;;;;;;;;;;;;;;23.51;68.56;97295.53;594548;238;67292;-73
2023/08/21 03:36:33;;;;;;;;;;;;;;;23.51;68.51;97298.20;586855;241;64883;-73
2023/08/21 03:39:06;;;;;;;;;;;;;;;23.51;68.43;97295.53;593981;238;65524;-72
2023/08/21 03:41:34;;;;;;;;;;;;;;;23.51;68.35;97300.89;594587;235;48930;-73
2023/08/21 03:44:02;;;;;;;;;;;;;;;23.51;68.43;97303.58;584571;242;64828;-74
2023/08/21 03:46:29;;;;;;;;;;;;;;;23.51;68.31;97292.05;591266;240;62562;-74
2023/08/21 03:48:57;;;;;;;;;;;;;;;23.50;68.23;97299.30;587938;240;67085;-73
2023/08/21 03:51:24;;;;;;;;;;;;;;;23.50;68.19;97296.63;593925;238;67021;-74
2023/08/21 03:53:52;;;;;;;;;;;;;;;23.50;68.42;97299.30;593159;238;62455;-74
2023/08/21 03:56:20;;;;;;;;;;;;;;;23.49;68.44;97298.51;595308;237;67091;-74
2023/08/21 03:58:48;;;;;;;;;;;;;;;23.49;68.35;97303.08;595546;237;67073;-73
2023/08/21 04:01:15;;;;;;;;;;;;;;;23.49;68.28;97303.08;585658;241;62310;-74
2023/08/21 04:03:43;;;;;;;;;;;;;;;23.49;68.39;97309.23;593850;238;67236;-74
2023/08/21 04:06:10;;;;;;;;;;;;;;;23.49;68.23;97305.77;593504;238;64783;-73
2023/08/21 04:08:38;;;;;;;;;;;;;;;23.50;68.46;97307.34;594514;236;62479;-74
2023/08/21 04:11:06;;;;;;;;;;;;;;;23.49;68.45;97313.81;594503;238;65141;-74
2023/08/21 04:13:34;;;;;;;;;;;;;;;23.49;68.45;97316.48;594534;237;66896;-74
2023/08/21 04:16:02;;;;;;;;;;;;;;;23.48;68.46;97321.03;594461;237;64578;-74
2023/08/21 04:18:29;;;;;;;;;;;;;;;23.48;68.52;97318.34;594511;238;64861;-74
2023/08/21 04:20:57;;;;;;;;;;;;;;;23.49;68.50;97321.86;595132;236;64621;-73
2023/08/21 04:23:24;;;;;;;;;;;;;;;23.48;68.61;97325.59;588233;240;64625;-73
2023/08/21 04:25:52;;;;;;;;;;;;;;;23.48;68.60;97326.39;595805;237;64907;-73
2023/08/21 04:28:20;;;;;;;;;;;;;;;23.48;68.46;97334.44;594489;238;65296;-74
2023/08/21 04:30:48;;;;;;;;;;;;;;;23.48;68.37;97328.28;593386;238;63321;-74
2023/08/21 04:33:15;;;;;;;;;;;;;;;23.48;68.47;97328.28;587527;240;64870;-74
2023/08/21 04:35:43;;;;;;;;;;;;;;;23.48;68.44;97323.71;593763;238;66966;-73
2023/08/21 04:38:11;;;;;;;;;;;;;;;23.47;68.31;97330.17;593279;238;65277;-73
2023/08/21 04:40:39;;;;;;;;;;;;;;;23.47;68.38;97322.12;595315;237;65008;-73
2023/08/21 04:43:07;;;;;;;;;;;;;;;23.47;68.26;97324.01;592037;237;64924;-70
2023/08/21 04:45:37;;;;;;;;;;;;;;;23.47;68.37;97321.33;595099;237;62548;-70
2023/08/21 04:48:05;;;;;;;;;;;;;;;23.47;68.50;97324.01;594504;238;64670;-70
2023/08/21 04:50:33;;;;;;;;;;;;;;;23.47;68.51;97326.69;593562;238;65017;-70
2023/08/21 04:53:01;;;;;;;;;;;;;;;23.47;68.43;97324.80;594445;238;64614;-70
2023/08/21 04:55:28;;;;;;;;;;;;;;;23.47;68.33;97324.80;593133;237;67352;-70
2023/08/21 04:57:56;;;;;;;;;;;;;;;23.47;68.67;97335.53;594708;237;65661;-70
2023/08/21 05:00:24;;;;;;;;;;;;;;;23.48;68.53;97333.64;595499;237;64678;-70
2023/08/21 05:02:52;;;;;;;;;;;;;;;23.46;68.48;97330.44;594505;238;64457;-70
2023/08/21 05:05:20;;;;;;;;;;;;;;;23.47;68.45;97326.69;596402;237;67268;-70
2023/08/21 05:07:48;;;;;;;;;;;;;;;23.46;68.45;97330.44;594462;238;62417;-70
2023/08/21 05:10:15;;;;;;;;;;;;;;;23.47;68.59;97329.38;586440;241;67253;-70
2023/08/21 05:12:43;;;;;;;;;;;;;;;23.47;68.58;97337.42;593430;238;64852;-70
2023/08/21 05:15:11;;;;;;;;;;;;;;;23.46;68.45;97333.11;594504;238;64791;-70
2023/08/21 05:17:39;;;;;;;;;;;;;;;23.46;68.42;97325.06;594473;237;67806;-70
2023/08/21 05:20:07;;;;;;;;;;;;;;;23.46;68.49;97325.06;593249;237;66869;-70
2023/08/21 05:22:35;;;;;;;;;;;;;;;23.47;68.71;97321.33;587552;240;62527;-70
2023/08/21 05:25:02;;;;;;;;;;;;;;;23.47;68.58;97324.01;595416;237;67134;-70
2023/08/21 05:27:30;;;;;;;;;;;;;;;23.46;68.58;97323.22;594506;238;66846;-70
2023/08/21 05:29:57;;;;;;;;;;;;;;;23.47;68.68;97321.33;594614;237;62421;-70
2023/08/21 05:32:25;;;;;;;;;;;;;;;23.47;68.63;97321.33;596802;237;67183;-70
2023/08/21 05:34:53;;;;;;;;;;;;;;;23.46;68.67;97319.70;592221;237;66746;-69
2023/08/21 05:37:20;;;;;;;;;;;;;;;23.47;68.77;97326.69;588207;240;64554;-66
2023/08/21 05:39:48;;;;;;;;;;;;;;;23.47;68.85;97324.80;592500;237;67322;-69
2023/08/21 05:42:17;;;;;;;;;;;;;;;23.47;68.63;97326.69;585356;240;65341;-69
2023/08/21 05:44:45;;;;;;;;;;;;;;;23.48;68.77;97328.28;596057;237;64634;-69
2023/08/21 05:47:12;;;;;;;;;;;;;;;23.47;69.00;97322.12;594811;237;67149;-73
2023/08/21 05:49:40;;;;;;;;;;;;;;;23.47;69.04;97329.38;594171;238;66909;-74
2023/08/21 05:52:07;;;;;;;;;;;;;;;23.46;68.98;97331.26;594427;237;64770;-74
2023/08/21 05:54:35;;;;;;;;;;;;;;;23.48;68.94;97330.96;594397;238;67013;-75
2023/08/21 05:57:04;;;;;;;;;;;;;;;23.48;68.94;97330.96;593898;238;64382;-74
2023/08/21 05:59:32;;;;;;;;;;;;;;;23.47;69.09;97335.53;588581;237;64576;-65
2023/08/21 06:02:01;;;;;;;;;;;;;;;23.47;69.22;97340.89;592334;237;66894;-63
2023/08/21 06:04:29;;;;;;;;;;;;;;;23.48;68.27;97339.80;590301;238;66952;-65
2023/08/21 06:06:58;;;;;;;;;;;;;;;23.48;69.35;97334.44;585781;242;43589;-65
2023/08/21 06:09:25;;;;;;;;;;;;;;;23.48;69.24;97333.64;594100;238;67270;-72
2023/08/21 06:11:53;;;;;;;;;;;;;;;23.47;68.81;97340.10;594456;238;64959;-73
2023/08/21 06:14:28;;;;;;;;;;;;;;;23.48;68.60;97344.38;594642;237;64606;-72
2023/08/21 06:16:50;;;;;;;;;;;;;;;23.49;68.86;97351.36;589461;239;67029;-73
2023/08/21 06:19:17;;;;;;;;;;;;;;;23.49;69.08;97351.36;587692;240;67261;-73
2023/08/21 06:21:45;;;;;;;;;;;;;;;23.50;69.26;97352.95;579183;243;64524;-71
2023/08/21 06:24:12;;;;;;;;;;;;;;;23.50;69.18;97358.31;584025;240;67163;-71
2023/08/21 06:26:40;;;;;;;;;;;;;;;23.49;69.26;97352.16;584432;243;64861;-71
2023/08/21 06:29:08;;;;;;;;;;;;;;;23.51;68.65;97359.91;584367;243;64696;-71
2023/08/21 06:31:35;;;;;;;;;;;;;;;23.50;68.47;97358.31;581669;243;67035;-70
2023/08/21 06:34:03;;;;;;;;;;;;;;;23.51;68.36;97359.11;593385;238;66705;-71
2023/08/21 06:36:31;;;;;;;;;;;;;;;23.51;68.23;97354.55;596078;238;62490;-70
2023/08/21 06:38:58;;;;;;;;;;;;;;;23.52;68.25;97352.66;596047;238;67388;-70
2023/08/21 06:41:27;;;;;;;;;;;;;;;23.52;68.67;97356.16;591073;237;68146;-73
2023/08/21 06:43:55;;;;;;;;;;;;;;;23.52;68.58;97350.80;597693;237;65198;-71
2023/08/21 06:46:22;;;;;;;;;;;;;;;23.51;67.37;97353.75;597152;237;64865;-71
2023/08/21 06:48:53;;;;;;;;;;;;;;;23.52;66.36;97353.48;596121;237;66628;-72
2023/08/21 06:51:20;;;;;;;;;;;;;;;23.53;67.09;97357.76;594750;238;62509;-70
2023/08/21 06:53:48;;;;;;;;;;;;;;;23.54;67.30;97356.66;596164;238;65561;-70
2023/08/21 06:56:16;;;;;;;;;;;;;;;23.54;67.12;97348.62;594839;238;65546;-70
2023/08/21 06:58:44;;;;;;;;;;;;;;;23.54;65.57;97353.98;594978;238;65605;-70
2023/08/21 07:01:11;;;;;;;;;;;;;;;23.54;65.62;97353.98;596469;238;66957;-71
2023/08/21 07:03:39;;;;;;;;;;;;;;;23.55;65.39;97344.88;595556;238;64290;-71
2023/08/21 07:06:07;;;;;;;;;;;;;;;23.55;65.33;97344.08;594652;238;65026;-71
2023/08/21 07:08:34;;;;;;;;;;;;;;;23.56;65.32;97351.03;596187;238;66816;-70
2023/08/21 07:11:04;;;;;;;;;;;;;;;23.56;65.35;97351.03;596348;238;66852;-72
2023/08/21 07:13:32;;;;;;;;;;;;;;;23.57;65.40;97353.45;595449;237;64548;-73
2023/08/21 07:16:06;;;;;;;;;;;;;;;23.58;65.44;97344.31;594707;238;66816;-70
2023/08/21 07:18:31;;;;;;;;;;;;;;;23.57;65.49;97342.72;595722;238;64688;-71
2023/08/21 07:20:58;;;;;;;;;;;;;;;23.58;65.63;97340.83;595371;238;65479;-69
2023/08/21 07:23:26;;;;;;;;;;;;;;;23.56;65.52;97335.73;595864;238;67079;-69
2023/08/21 07:25:54;;;;;;;;;;;;;;;23.59;65.53;97343.22;594200;237;66767;-70
2023/08/21 07:28:21;;;;;;;;;;;;;;;23.59;65.39;97335.17;593595;238;62490;-71
2023/08/21 07:30:49;;;;;;;;;;;;;;;23.60;65.39;97335.97;594792;238;67398;-73
2023/08/21 07:33:16;;;;;;;;;;;;;;;23.61;65.38;97334.91;594674;238;64858;-70
2023/08/21 07:35:44;;;;;;;;;;;;;;;23.62;65.42;97337.29;594745;238;62357;-72
2023/08/21 07:38:11;;;;;;;;;;;;;;;23.62;65.42;97331.13;594767;238;66981;-67
2023/08/21 07:40:39;;;;;;;;;;;;;;;23.62;65.41;97334.61;594651;238;67106;-62
2023/08/21 07:43:06;;;;;;;;;;;;;;;23.64;65.01;97337.02;595797;238;64580;-69
2023/08/21 07:45:36;;;;;;;;;;;;;;;23.65;64.76;97335.93;596385;238;67254;-67
2023/08/21 07:48:04;;;;;;;;;;;;;;;23.67;65.26;97331.09;596312;238;64895;-64
2023/08/21 07:50:32;;;;;;;;;;;;;;;23.66;65.36;97330.30;596382;238;64676;-65
2023/08/21 07:52:59;;;;;;;;;;;;;;;23.68;64.82;97330.83;595222;238;67110;-70
2023/08/21 07:55:27;;;;;;;;;;;;;;;23.69;64.54;97331.62;595411;238;66854;-69
2023/08/21 07:57:54;;;;;;;;;;;;;;;23.70;65.04;97331.32;592914;239;64477;-68
2023/08/21 08:00:25;;;;;;;;;;;;;;;23.69;62.79;97326.25;591742;240;64621;-69
2023/08/21 08:02:51;;;;;;;;;;;;;;;23.71;62.18;97334.86;591508;238;65555;-70
2023/08/21 08:05:19;;;;;;;;;;;;;;;23.73;62.36;97324.63;591734;240;64925;-69
2023/08/21 08:07:47;;;;;;;;;;;;;;;23.73;63.31;97331.88;593393;239;67234;-70
2023/08/21 08:10:14;;;;;;;;;;;;;;;23.73;63.36;97327.31;591644;240;65220;-69
2023/08/21 08:12:44;;;;;;;;;;;;;;;23.73;62.20;97335.36;591712;240;62459;-69
2023/08/21 08:15:11;;;;;;;;;;;;;;;23.75;62.22;97329.72;591609;238;67072;-70
2023/08/21 08:17:39;;;;;;;;;;;;;;;23.73;63.12;97329.99;593035;239;64798;-68
2023/08/21 08:20:07;;;;;;;;;;;;;;;23.73;63.47;97329.20;591717;240;62468;-69
2023/08/21 08:22:36;;;;;;;;;;;;;;;23.74;62.48;97326.25;591692;239;67211;-69
2023/08/21 08:25:05;;;;;;;;;;;;;;;23.74;63.01;97320.88;593202;238;67783;-68
2023/08/21 08:27:35;;;;;;;;;;;;;;;23.74;64.01;97315.52;591675;238;62833;-69
2023/08/21 08:30:05;;;;;;;;;;;;;;;23.74;64.05;97317.40;583996;239;66858;-69
2023/08/21 08:32:37;;;;;;;;;;;;;;;23.74;64.12;97309.34;591937;239;64480;-69
2023/08/21 08:35:02;;;;;;;;;;;;;;;23.75;64.02;97310.94;591488;240;63644;-71
2023/08/21 08:37:29;;;;;;;;;;;;;;;23.74;63.87;97318.20;591687;240;65087;-69
2023/08/21 08:39:57;;;;;;;;;;;;;;;23.74;63.72;97310.14;592433;239;66719;-69
2023/08/21 08:42:24;;;;;;;;;;;;;;;23.75;63.49;97305.57;592346;238;65630;-68
2023/08/21 08:44:53;;;;;;;;;;;;;;;23.76;63.41;97297.22;593118;238;67068;-70
2023/08/21 08:47:22;;;;;;;;;;;;;;;23.76;63.55;97293.75;592918;238;64624;-68
2023/08/21 08:49:49;;;;;;;;;;;;;;;23.76;63.49;97289.17;593549;239;62594;-70
2023/08/21 08:52:17;;;;;;;;;;;;;;;23.78;63.37;97288.91;592948;239;67953;-70
2023/08/21 08:54:45;;;;;;;;;;;;;;;23.78;63.20;97294.27;593416;238;66976;-70
2023/08/21 08:57:15;;;;;;;;;;;;;;;23.78;63.19;97284.33;592890;239;65734;-69
2023/08/21 08:59:42;;;;;;;;;;;;;;;23.78;63.08;97276.28;592796;238;67120;-68
2023/08/21 09:02:09;;;;;;;;;;;;;;;23.78;63.16;97281.65;592865;239;67142;-74
2023/08/21 09:04:37;;;;;;;;;;;;;;;23.79;63.14;97285.13;592567;239;64680;-69
2023/08/21 09:07:12;;;;;;;;;;;;;;;23.78;63.08;97283.54;594486;238;67058;-68
2023/08/21 09:09:43;;;;;;;;;;;;;;;23.79;63.03;97279.77;592718;239;67039;-67
2023/08/21 09:12:14;;;;;;;;;;;;;;;23.80;62.42;97274.13;595259;237;62439;-71
2023/08/21 09:14:42;;;;;;;;;;;;;;;23.80;63.01;97279.48;594835;238;64807;-73
2023/08/21 09:17:10;;;;;;;;;;;;;;;23.79;62.98;97279.77;593559;238;64719;-71
2023/08/21 09:19:38;;;;;;;;;;;;;;;23.78;62.93;97272.80;594649;237;62559;-70
2023/08/21 09:22:10;;;;;;;;;;;;;;;23.78;63.07;97273.59;594462;237;67219;-68
2023/08/21 09:24:39;;;;;;;;;;;;;;;23.78;63.38;97272.80;592629;239;67487;-69
2023/08/21 09:27:08;;;;;;;;;;;;;;;23.77;63.42;97265.84;592428;239;62528;-68
2023/08/21 09:29:40;;;;;;;;;;;;;;;23.77;63.53;97271.22;592624;238;66920;-69
2023/08/21 09:32:07;;;;;;;;;;;;;;;23.77;63.75;97265.84;593001;239;67107;-71
2023/08/21 09:34:38;;;;;;;;;;;;;;;23.77;63.96;97265.84;592934;239;63347;-71
2023/08/21 09:37:10;;;;;;;;;;;;;;;23.76;64.07;97259.66;593853;238;65961;-71
2023/08/21 09:39:38;;;;;;;;;;;;;;;23.76;64.01;97259.66;593678;238;66936;-72
2023/08/21 09:42:07;;;;;;;;;;;;;;;23.77;64.01;97266.64;592916;239;64865;-72
2023/08/21 09:44:43;;;;;;;;;;;;;;;23.78;64.13;97262.07;593381;238;66959;-70
2023/08/21 09:47:11;;;;;;;;;;;;;;;23.78;64.25;97259.38;593703;238;67211;-72
2023/08/21 09:49:40;;;;;;;;;;;;;;;23.78;64.28;97267.44;592862;239;64729;-72
2023/08/21 09:52:10;;;;;;;;;;;;;;;23.77;64.28;97253.22;592941;239;67533;-71
2023/08/21 09:54:38;;;;;;;;;;;;;;;23.78;64.37;97245.97;592198;238;66931;-71
2023/08/21 09:57:06;;;;;;;;;;;;;;;23.78;64.45;97243.28;592741;239;62694;-68
2023/08/21 09:59:34;;;;;;;;;;;;;;;23.78;64.60;97245.97;592473;239;64705;-63
2023/08/21 10:02:01;;;;;;;;;;;;;;;23.77;64.77;97239.80;591872;239;67144;-64
2023/08/21 10:04:30;;;;;;;;;;;;;;;23.77;64.79;97239.02;592390;239;64834;-70
2023/08/21 10:06:58;;;;;;;;;;;;;;;23.78;64.84;97236.03;593000;239;65084;-69
2023/08/21 10:09:27;;;;;;;;;;;;;;;23.78;64.81;97236.03;592875;239;66968;-69
2023/08/21 10:11:56;;;;;;;;;;;;;;;23.77;64.78;97229.07;592649;239;64581;-69
2023/08/21 10:14:24;;;;;;;;;;;;;;;23.79;64.82;97229.59;592553;238;67321;-71
2023/08/21 10:16:55;;;;;;;;;;;;;;;23.79;64.73;97234.97;592925;238;67871;-69
2023/08/21 10:19:22;;;;;;;;;;;;;;;23.79;64.84;97226.91;592914;239;62621;-68
2023/08/21 10:21:50;;;;;;;;;;;;;;;23.80;64.97;97225.02;594292;238;64536;-68
2023/08/21 10:24:28;;;;;;;;;;;;;;;23.79;64.90;97220.72;594438;237;66968;-64
2023/08/21 10:26:57;;;;;;;;;;;;;;;23.80;64.94;97227.70;594670;237;64647;-68
2023/08/21 10:29:25;;;;;;;;;;;;;;;23.82;64.63;97225.55;594086;238;64600;-69
2023/08/21 10:31:54;;;;;;;;;;;;;;;23.82;64.70;97217.50;592433;239;64566;-68
2023/08/21 10:34:21;;;;;;;;;;;;;;;23.82;64.11;97222.86;592660;237;64856;-68
2023/08/21 10:36:50;;;;;;;;;;;;;;;23.83;63.59;97211.83;594336;238;65737;-68
2023/08/21 10:39:22;;;;;;;;;;;;;;;23.83;63.89;97217.19;592552;238;65181;-69
2023/08/21 10:41:59;;;;;;;;;;;;;;;23.83;64.30;97206.45;592984;239;63353;-63
2023/08/21 10:44:37;;;;;;;;;;;;;;;23.84;63.86;97212.63;594654;238;66882;-63
2023/08/21 10:47:19;;;;;;;;;;;;;;;23.83;64.59;97205.66;594272;238;67130;-68
2023/08/21 10:49:45;;;;;;;;;;;;;;;23.83;64.75;97211.83;593272;237;64840;-68
2023/08/21 10:52:13;;;;;;;;;;;;;;;23.83;64.65;97219.08;596950;235;67467;-68
2023/08/21 10:54:45;;;;;;;;;;;;;;;23.83;64.53;97208.34;595313;237;66877;-68
2023/08/21 10:57:13;;;;;;;;;;;;;;;23.83;64.39;97205.66;595176;238;65015;-68
2023/08/21 10:59:41;;;;;;;;;;;;;;;23.83;63.93;97205.66;596551;238;64187;-68
2023/08/21 11:02:09;;;;;;;;;;;;;;;23.84;63.74;97207.25;596207;238;64092;-70
2023/08/21 11:04:44;;;;;;;;;;;;;;;23.84;63.95;97209.94;596594;238;62733;-69
2023/08/21 11:07:12;;;;;;;;;;;;;;;23.85;63.76;97206.19;596016;238;64819;-70
2023/08/21 11:09:40;;;;;;;;;;;;;;;23.84;64.03;97199.99;595336;238;66841;-67
2023/08/21 11:12:09;;;;;;;;;;;;;;;23.84;64.13;97193.83;595356;238;64817;-67
2023/08/21 11:14:38;;;;;;;;;;;;;;;23.85;64.19;97200.82;595016;238;66858;-71
2023/08/21 11:17:06;;;;;;;;;;;;;;;23.85;64.13;97198.14;595374;238;64570;-66
2023/08/21 11:19:34;;;;;;;;;;;;;;;23.85;64.08;97198.14;595296;238;64794;-66
2023/08/21 11:22:05;;;;;;;;;;;;;;;23.86;64.00;97194.36;595301;238;65005;-66
2023/08/21 11:24:38;;;;;;;;;;;;;;;23.86;63.79;97199.72;595279;238;64908;-66
2023/08/21 11:27:05;;;;;;;;;;;;;;;23.86;63.72;97184.41;595288;238;62461;-73
2023/08/21 11:29:34;;;;;;;;;;;;;;;23.87;63.58;97185.21;595170;238;67345;-73
2023/08/21 11:32:02;;;;;;;;;;;;;;;23.87;63.42;97186.03;594968;238;65138;-74
2023/08/21 11:34:31;;;;;;;;;;;;;;;23.88;63.30;97198.36;595293;238;64887;-72
2023/08/21 11:37:00;;;;;;;;;;;;;;;23.91;63.18;97186.25;595215;238;67230;-72
2023/08/21 11:39:29;;;;;;;;;;;;;;;;;;595305;238;67876;-71
2023/08/21 11:41:58;;;;;;;;;;;;;;;23.91;62.93;97170.94;595187;238;65806;-72
2023/08/21 11:44:26;;;;;;;;;;;;;;;23.92;62.85;97177.10;595475;237;67260;-73
2023/08/21 11:46:53;;;;;;;;;;;;;;;23.94;62.86;97174.94;598427;237;66695;-71
2023/08/21 11:49:22;;;;;;;;;;;;;;;23.94;62.93;97174.94;595925;237;63371;-71
2023/08/21 11:51:50;;;;;;;;;;;;;;;23.96;63.02;97161.25;594667;238;67066;-70
2023/08/21 11:54:18;;;;;;;;;;;;;;;23.96;63.13;97156.67;594629;238;65182;-69
2023/08/21 11:56:47;;;;;;;;;;;;;;;23.96;63.31;97162.04;595095;237;64807;-68
2023/08/21 11:59:24;;;;;;;;;;;;;;;23.97;63.42;97163.63;595583;238;67368;-68
2023/08/21 12:01:52;;;;;;;;;;;;;;;23.98;63.61;97175.98;595339;238;66907;-68
2023/08/21 12:04:19;;;;;;;;;;;;;;;23.97;63.75;97178.94;595859;238;62787;-68
2023/08/21 12:06:47;;;;;;;;;;;;;;;23.96;63.86;97172.78;594738;238;64537;-68
2023/08/21 12:09:14;;;;;;;;;;;;;;;23.96;63.92;97178.15;595900;237;64081;-69
2023/08/21 12:11:42;;;;;;;;;;;;;;;23.97;64.01;97174.36;593568;237;64577;-69
2023/08/21 12:14:09;;;;;;;;;;;;;;;23.96;64.07;97174.67;596598;237;66402;-69
2023/08/21 12:16:37;;;;;;;;;;;;;;;23.97;64.09;97173.57;592624;238;66969;-68
2023/08/21 12:19:07;;;;;;;;;;;;;;;23.97;64.13;97173.57;595392;238;63440;-68
2023/08/21 12:21:36;;;;;;;;;;;;;;;23.97;64.20;97173.57;596280;238;64400;-69
2023/08/21 12:24:03;;;;;;;;;;;;;;;23.97;64.20;97179.73;596407;238;64472;-68
2023/08/21 12:26:31;;;;;;;;;;;;;;;23.97;64.26;97179.73;594604;237;64832;-68
2023/08/21 12:28:59;;;;;;;;;;;;;;;23.97;64.28;97181.63;595428;237;66921;-68
2023/08/21 12:31:26;;;;;;;;;;;;;;;23.98;64.32;97183.21;595253;237;65427;-69
2023/08/21 12:33:54;;;;;;;;;;;;;;;23.97;64.36;97179.73;598358;236;64559;-68
2023/08/21 12:36:21;;;;;;;;;;;;;;;23.99;64.43;97182.14;599845;236;64770;-68
2023/08/21 12:38:49;;;;;;;;;;;;;;;23.99;64.48;97182.14;596924;236;64815;-68
2023/08/21 12:41:16;;;;;;;;;;;;;;;23.99;64.52;97184.83;595073;237;62526;-68
2023/08/21 12:43:44;;;;;;;;;;;;;;;24.00;64.59;97170.31;597719;237;65496;-68
2023/08/21 12:46:11;;;;;;;;;;;;;;;24.00;64.60;97178.36;597766;235;64634;-68
2023/08/21 12:48:39;;;;;;;;;;;;;;;23.99;64.68;97169.52;597923;237;64764;-68
2023/08/21 12:51:06;;;;;;;;;;;;;;;23.99;64.71;97168.72;597986;237;66784;-68
2023/08/21 12:53:34;;;;;;;;;;;;;;;24.00;64.79;97167.63;597879;237;66759;-68